Track Фоменко Максим

Time Latitude Longitude Accuracy (66% radius in meters) Altitude (meters) Speed (km/hour) Bearing (degrees) Battery (%) GPS flag
11:00:29 51.811046 39.391117 2 106.30000305176 0.83999997377396 325.5908203125 65 1 delete
10:59:56 51.811041 39.391115 2 103 0.28000000119209 182.71911621094 65 1 delete
10:59:50 51.811082 39.391109 2 104.90000152588 0 0 65 1 delete
10:59:35 51.811082 39.391109 2 104.90000152588 0 0 65 1 delete
10:59:23 51.811097 39.391106 1.5 103.69999694824 0 0 65 1 delete
10:59:05 51.811097 39.391106 2.5 103.69999694824 0 0 65 1 delete
10:59:02 51.811096 39.391105 2 105.30000305176 0.029999999329448 20.19287109375 65 1 delete
10:58:53 51.811076 39.391048 2 114.59999847412 0 0 65 1 delete
10:58:50 51.811078 39.391036 2 115.5 0.11999999731779 97.14111328125 65 1 delete
10:58:41 51.811005 39.391056 2 112.19999694824 0.39999997615814 328.21655273438 65 1 delete
10:58:38 51.811003 39.391126 2 109.80000305176 0 0 65 1 delete
10:58:11 51.811016 39.391105 1.5 102.5 0 0 65 1 delete
10:57:59 51.811016 39.391105 2 102.5 0 0 65 1 delete
10:57:50 51.811041 39.391109 2.5 102.40000152588 0 124.47509765625 65 1 delete
10:57:44 51.811090 39.391092 2 102 0 0 65 1 delete
10:57:29 51.811092 39.391074 2.5 101.09999847412 0.1499999910593 89.631958007812 65 1 delete
10:57:17 51.811072 39.391084 2.5 100.90000152588 0 0 65 1 delete
10:57:05 51.811072 39.391084 2 100.90000152588 0 0 65 1 delete
10:56:47 51.811076 39.391121 2.5 95.800003051758 0 0 65 1 delete
10:56:35 51.811042 39.391107 2.5 100.80000305176 0 0 65 1 delete
10:56:14 51.811058 39.391125 2.5 99.900001525879 0.1499999910593 266.21520996094 65 1 delete
10:55:41 51.811084 39.391088 2 89.699996948242 0 0 65 1 delete
10:55:23 51.811083 39.391062 2 82.400001525879 0 0 65 1 delete
10:55:20 51.811101 39.391046 2 80.699996948242 0.17000000178814 176.68212890625 65 1 delete
10:54:59 51.811130 39.390990 1.5 72.800003051758 0.059999998658895 42.445678710938 65 1 delete
10:54:47 51.811118 39.391005 2 71.099998474121 0 0 65 1 delete
10:54:32 51.811118 39.391005 2 71.099998474121 0 0 65 1 delete
10:54:14 51.811145 39.391020 2 79.199996948242 0 0 65 1 delete
10:53:56 51.811145 39.391020 2 79.199996948242 0 0 65 1 delete
10:53:29 51.811145 39.391020 2 79.199996948242 0 0 65 1 delete
10:53:23 51.811145 39.391020 2 79.199996948242 0 0 65 1 delete
10:53:14 51.811095 39.391012 2 79.5 0 0 65 1 delete
10:52:26 51.811095 39.391012 2 79.5 0 0 69 1 delete
10:51:56 51.811095 39.391021 2 78.400001525879 0 0 69 1 delete
10:51:29 51.811095 39.391021 2 78.400001525879 0 0 69 1 delete
10:51:14 51.811095 39.391021 2.5 78.400001525879 0 0 69 1 delete
10:50:56 51.811095 39.391021 2 78.400001525879 0 0 69 1 delete
10:50:53 51.811099 39.391016 2.5 78.099998474121 0.35999998450279 184.94384765625 69 1 delete
10:50:20 51.811156 39.391036 2 79.699996948242 0 0 69 1 delete
10:50:05 51.811102 39.391042 2 84.900001525879 0 0 69 1 delete
10:49:53 51.811099 39.391040 2.5 85.599998474121 0.23999999463558 70.581665039062 69 1 delete
10:49:38 51.811047 39.391035 2 100.69999694824 0 0 69 1 delete
10:49:23 51.811047 39.391035 2.5 100.69999694824 0 0 69 1 delete
10:48:59 51.811047 39.391029 2 100.5 0.079999998211861 160.60913085938 69 1 delete
10:48:11 51.811022 39.391069 2 101.5 0 0 69 1 delete
10:47:59 51.811022 39.391069 2 101.5 0 0 69 1 delete
10:47:47 51.811022 39.391069 2 101.5 0 0 69 1 delete
10:47:32 51.811079 39.391059 1.5 104.19999694824 0 0 69 1 delete
10:47:14 51.811061 39.391109 2 100.19999694824 0 0 69 1 delete
10:46:59 51.811061 39.391109 2.5 100.19999694824 0 0 69 1 delete